createdAt,value
2016-11-30T00:00:09.895Z,0
2016-11-30T00:00:42.203Z,0
2016-11-30T00:01:14.523Z,0
2016-11-30T00:01:46.852Z,0
2016-11-30T00:02:19.172Z,0
2016-11-30T00:02:51.498Z,0
2016-11-30T00:03:23.816Z,0
2016-11-30T00:03:56.129Z,0
2016-11-30T00:04:28.467Z,0
2016-11-30T00:05:00.779Z,0
2016-11-30T00:05:33.104Z,0
2016-11-30T00:06:05.432Z,0
2016-11-30T00:06:37.732Z,0
2016-11-30T00:07:10.045Z,0
2016-11-30T00:07:42.380Z,0
2016-11-30T00:08:14.735Z,0
2016-11-30T00:08:47.058Z,0
2016-11-30T00:09:19.381Z,0
2016-11-30T00:09:51.705Z,0
2016-11-30T00:10:24.030Z,0
2016-11-30T00:10:56.339Z,0
2016-11-30T00:11:28.656Z,0
2016-11-30T00:12:00.975Z,0
2016-11-30T00:12:33.281Z,0
2016-11-30T00:13:05.596Z,0
2016-11-30T00:13:37.908Z,0
2016-11-30T00:14:10.236Z,0
2016-11-30T00:14:42.558Z,0
2016-11-30T00:15:14.885Z,0
2016-11-30T00:15:47.202Z,0
2016-11-30T00:16:19.522Z,0
2016-11-30T00:16:51.834Z,0
2016-11-30T00:17:24.142Z,0
2016-11-30T00:17:56.458Z,0
2016-11-30T00:18:28.781Z,0
2016-11-30T00:19:01.099Z,0
2016-11-30T00:19:33.424Z,0
2016-11-30T00:20:06.358Z,0
2016-11-30T00:20:38.668Z,0
2016-11-30T00:21:10.965Z,0
2016-11-30T00:21:43.277Z,0
2016-11-30T00:22:15.582Z,0
2016-11-30T00:22:47.905Z,0
2016-11-30T00:23:20.219Z,0
2016-11-30T00:23:52.539Z,0
2016-11-30T00:24:24.853Z,0
2016-11-30T00:24:57.157Z,0
2016-11-30T00:25:29.471Z,0
2016-11-30T00:26:01.780Z,0
2016-11-30T00:26:34.117Z,0
2016-11-30T00:27:06.434Z,0
2016-11-30T00:27:38.763Z,0
2016-11-30T00:28:11.076Z,0
2016-11-30T00:28:43.400Z,0
2016-11-30T00:29:15.692Z,0
2016-11-30T00:29:48.010Z,0
2016-11-30T00:30:20.330Z,0
2016-11-30T00:30:52.630Z,0
2016-11-30T00:31:24.980Z,0
2016-11-30T00:31:57.297Z,0
2016-11-30T00:32:29.617Z,0
2016-11-30T00:33:01.929Z,0
2016-11-30T00:33:34.245Z,0
2016-11-30T00:34:06.559Z,0
2016-11-30T00:34:38.868Z,0
2016-11-30T00:35:11.229Z,0
2016-11-30T00:35:43.542Z,0
2016-11-30T00:36:15.869Z,0
2016-11-30T00:36:48.187Z,0
2016-11-30T00:37:20.543Z,0
2016-11-30T00:37:52.869Z,0
2016-11-30T00:38:25.181Z,0
2016-11-30T00:38:57.501Z,0
2016-11-30T00:39:29.813Z,0
2016-11-30T00:40:02.152Z,0
2016-11-30T00:40:34.492Z,0
2016-11-30T00:41:06.809Z,0
2016-11-30T00:41:39.130Z,0
2016-11-30T00:42:11.438Z,0
2016-11-30T00:42:43.773Z,0
2016-11-30T00:43:16.086Z,0
2016-11-30T00:43:48.398Z,0
2016-11-30T00:44:20.707Z,0
2016-11-30T00:44:53.028Z,0
2016-11-30T00:45:25.335Z,0
2016-11-30T00:45:57.673Z,0
2016-11-30T00:46:30.021Z,0
2016-11-30T00:47:02.332Z,0
2016-11-30T00:47:34.647Z,0
2016-11-30T00:48:06.978Z,0
2016-11-30T00:48:39.310Z,0
2016-11-30T00:49:11.628Z,0
2016-11-30T00:49:43.952Z,0
2016-11-30T00:50:16.261Z,0
2016-11-30T00:50:48.598Z,0
2016-11-30T00:51:20.907Z,0
2016-11-30T00:51:53.231Z,0
2016-11-30T00:52:25.544Z,0
2016-11-30T00:52:57.854Z,0
2016-11-30T00:53:30.154Z,0
2016-11-30T00:54:02.498Z,0
2016-11-30T00:54:34.822Z,0
2016-11-30T00:55:07.130Z,0
2016-11-30T00:55:39.470Z,0
2016-11-30T00:56:11.786Z,0
2016-11-30T00:56:44.109Z,0
2016-11-30T00:57:16.412Z,0
2016-11-30T00:57:48.737Z,0
2016-11-30T00:58:21.061Z,0
2016-11-30T00:58:53.374Z,0
2016-11-30T00:59:25.690Z,0
2016-11-30T00:59:58.006Z,0
2016-11-30T01:00:30.326Z,0
2016-11-30T01:01:02.652Z,0
2016-11-30T01:01:34.980Z,0
2016-11-30T01:02:07.309Z,0
2016-11-30T01:02:39.623Z,0
2016-11-30T01:03:11.949Z,0
2016-11-30T01:03:44.277Z,0
2016-11-30T01:04:16.597Z,0
2016-11-30T01:04:48.925Z,0
2016-11-30T01:05:21.251Z,0
2016-11-30T01:05:53.570Z,0
2016-11-30T01:06:25.893Z,0
2016-11-30T01:06:58.195Z,0
2016-11-30T01:07:30.557Z,0
2016-11-30T01:08:02.881Z,0
2016-11-30T01:08:35.208Z,0
2016-11-30T01:09:07.532Z,0
2016-11-30T01:09:39.859Z,0
2016-11-30T01:10:12.163Z,0
2016-11-30T01:10:44.478Z,0
2016-11-30T01:11:16.810Z,0
2016-11-30T01:11:49.127Z,0
2016-11-30T01:12:21.445Z,0
2016-11-30T01:12:53.765Z,0
2016-11-30T01:13:26.079Z,0
2016-11-30T01:13:58.403Z,0
2016-11-30T01:14:30.745Z,0
2016-11-30T01:15:03.078Z,0
2016-11-30T01:15:35.394Z,0
2016-11-30T01:16:07.713Z,0
2016-11-30T01:16:40.021Z,0
2016-11-30T01:17:12.326Z,0
2016-11-30T01:17:44.650Z,0
2016-11-30T01:18:16.980Z,0
2016-11-30T01:18:49.307Z,0
2016-11-30T01:19:21.623Z,0
2016-11-30T01:19:53.954Z,0
2016-11-30T01:20:26.276Z,0
2016-11-30T01:20:58.609Z,0
2016-11-30T01:21:30.916Z,0
2016-11-30T01:22:03.234Z,0
2016-11-30T01:22:35.564Z,0
2016-11-30T01:23:07.871Z,0
2016-11-30T01:23:40.206Z,0
2016-11-30T01:24:12.519Z,0
2016-11-30T01:24:44.862Z,0
2016-11-30T01:25:17.182Z,0
2016-11-30T01:25:49.511Z,0
2016-11-30T01:26:21.819Z,0
2016-11-30T01:26:54.149Z,0
2016-11-30T01:27:26.488Z,0
2016-11-30T01:27:58.806Z,0
2016-11-30T01:28:31.127Z,0
2016-11-30T01:29:03.443Z,0
2016-11-30T01:29:35.754Z,0
2016-11-30T01:30:08.077Z,0
2016-11-30T01:30:40.393Z,0
2016-11-30T01:31:12.710Z,0
2016-11-30T01:31:45.043Z,0
2016-11-30T01:32:17.369Z,0
2016-11-30T01:32:49.678Z,0
2016-11-30T01:33:21.990Z,0
2016-11-30T01:33:54.304Z,0
2016-11-30T01:34:26.621Z,0
2016-11-30T01:34:58.948Z,0
2016-11-30T01:35:31.278Z,0
2016-11-30T01:36:03.580Z,0
2016-11-30T01:36:35.902Z,0
2016-11-30T01:37:08.240Z,0
2016-11-30T01:37:40.553Z,0
2016-11-30T01:38:12.874Z,0
2016-11-30T01:38:45.195Z,0
2016-11-30T01:39:17.520Z,0
2016-11-30T01:39:49.840Z,0
2016-11-30T01:40:22.158Z,0
2016-11-30T01:40:54.491Z,0
2016-11-30T01:41:26.808Z,0
2016-11-30T01:41:59.155Z,0
2016-11-30T01:42:31.479Z,0
2016-11-30T01:43:03.795Z,0
2016-11-30T01:43:36.121Z,0
2016-11-30T01:44:08.481Z,0
2016-11-30T01:44:40.795Z,0
2016-11-30T01:45:13.115Z,0
2016-11-30T01:45:45.433Z,0
2016-11-30T01:46:17.739Z,0
2016-11-30T01:46:50.060Z,0
2016-11-30T01:47:22.372Z,0
2016-11-30T01:47:54.687Z,0
2016-11-30T01:48:27.002Z,0
2016-11-30T01:48:59.322Z,0
2016-11-30T01:49:31.657Z,0
2016-11-30T01:50:03.993Z,0
2016-11-30T01:50:36.330Z,0
2016-11-30T01:51:08.645Z,0
2016-11-30T01:51:40.959Z,0
2016-11-30T01:52:13.280Z,0
2016-11-30T01:52:45.599Z,0
2016-11-30T01:53:17.913Z,0
2016-11-30T01:53:50.216Z,0
2016-11-30T01:54:22.539Z,0
2016-11-30T01:54:54.860Z,0
2016-11-30T01:55:27.181Z,0
2016-11-30T01:55:59.492Z,0
2016-11-30T01:56:31.824Z,0
2016-11-30T01:57:04.148Z,0
2016-11-30T01:57:36.473Z,0
2016-11-30T01:58:08.780Z,0
2016-11-30T01:58:41.116Z,0
2016-11-30T01:59:13.437Z,0
2016-11-30T01:59:45.757Z,0
2016-11-30T02:00:18.058Z,0
2016-11-30T02:00:50.408Z,0
2016-11-30T02:01:22.728Z,0
2016-11-30T02:01:55.060Z,0
2016-11-30T02:02:27.380Z,0
2016-11-30T02:02:59.744Z,0
2016-11-30T02:03:32.049Z,0
2016-11-30T02:04:04.375Z,0
2016-11-30T02:04:36.685Z,0
2016-11-30T02:05:08.992Z,0
2016-11-30T02:05:41.331Z,0
2016-11-30T02:06:13.646Z,0
2016-11-30T02:06:45.962Z,0
2016-11-30T02:07:18.267Z,0
2016-11-30T02:07:50.580Z,0
2016-11-30T02:08:22.920Z,0
2016-11-30T02:08:55.224Z,0
2016-11-30T02:09:27.539Z,0
2016-11-30T02:09:59.855Z,0
2016-11-30T02:10:32.148Z,0
2016-11-30T02:11:04.457Z,0
2016-11-30T02:11:36.785Z,0
2016-11-30T02:12:09.100Z,0
2016-11-30T02:12:41.422Z,0
2016-11-30T02:13:13.731Z,0
2016-11-30T02:13:46.083Z,0
2016-11-30T02:14:18.396Z,0
2016-11-30T02:14:50.724Z,0
2016-11-30T02:15:23.045Z,0
2016-11-30T02:15:55.365Z,0
2016-11-30T02:16:27.683Z,0
2016-11-30T02:17:00.014Z,0
2016-11-30T02:17:32.343Z,0
2016-11-30T02:18:04.654Z,0
2016-11-30T02:18:36.972Z,0
2016-11-30T02:19:09.300Z,0
2016-11-30T02:19:41.607Z,0
2016-11-30T02:20:13.938Z,0
2016-11-30T02:20:46.259Z,0
2016-11-30T02:21:18.626Z,0
2016-11-30T02:21:50.941Z,0
2016-11-30T02:22:23.267Z,0
2016-11-30T02:22:55.577Z,0
2016-11-30T02:23:27.892Z,0
2016-11-30T02:24:00.210Z,0
2016-11-30T02:24:32.534Z,0
2016-11-30T02:25:04.862Z,0
2016-11-30T02:25:37.175Z,0
2016-11-30T02:26:09.501Z,0
2016-11-30T02:26:41.853Z,0
2016-11-30T02:27:14.175Z,0
2016-11-30T02:27:46.534Z,0
2016-11-30T02:28:18.838Z,0
2016-11-30T02:28:51.137Z,0
2016-11-30T02:29:23.450Z,0
2016-11-30T02:29:55.778Z,0
2016-11-30T02:30:28.124Z,0
2016-11-30T02:31:00.425Z,0
2016-11-30T02:31:32.734Z,0
2016-11-30T02:32:05.041Z,0
2016-11-30T02:32:37.363Z,0
2016-11-30T02:33:09.696Z,0
2016-11-30T02:33:42.009Z,0
2016-11-30T02:34:14.313Z,0
2016-11-30T02:34:46.623Z,0
2016-11-30T02:35:18.966Z,0
2016-11-30T02:35:51.283Z,0
2016-11-30T02:36:23.602Z,0
2016-11-30T02:36:55.915Z,0
2016-11-30T02:37:28.244Z,0
2016-11-30T02:38:00.563Z,0
2016-11-30T02:38:32.885Z,0
2016-11-30T02:39:05.211Z,0
2016-11-30T02:39:37.535Z,0
2016-11-30T02:40:09.851Z,0
2016-11-30T02:40:42.172Z,0
2016-11-30T02:41:14.506Z,0
2016-11-30T02:41:46.827Z,0
2016-11-30T02:42:19.154Z,0
2016-11-30T02:42:51.468Z,0
2016-11-30T02:43:23.791Z,0
2016-11-30T02:43:56.111Z,0
2016-11-30T02:44:28.424Z,0
2016-11-30T02:45:00.762Z,0
2016-11-30T02:45:33.120Z,0
2016-11-30T02:46:05.442Z,0
2016-11-30T02:46:37.807Z,0
2016-11-30T02:47:10.112Z,0
2016-11-30T02:47:42.434Z,0
2016-11-30T02:48:14.743Z,0
2016-11-30T02:48:47.064Z,0
2016-11-30T02:49:19.372Z,0
2016-11-30T02:49:51.693Z,0
2016-11-30T02:50:24.020Z,0
2016-11-30T02:50:56.348Z,0
2016-11-30T02:51:28.671Z,0
2016-11-30T02:52:01.030Z,0
2016-11-30T02:52:33.340Z,0
2016-11-30T02:53:05.663Z,0
2016-11-30T02:53:37.989Z,0
2016-11-30T02:54:10.330Z,0
2016-11-30T02:54:42.639Z,0
2016-11-30T02:55:14.955Z,0
2016-11-30T02:55:47.251Z,0
2016-11-30T02:56:19.557Z,0
2016-11-30T02:56:51.864Z,0
2016-11-30T02:57:24.180Z,0
2016-11-30T02:57:56.501Z,0
2016-11-30T02:58:28.838Z,0
2016-11-30T02:59:01.162Z,0
2016-11-30T02:59:33.484Z,0
2016-11-30T03:00:05.801Z,0
2016-11-30T03:00:38.123Z,0
2016-11-30T03:01:10.457Z,0
2016-11-30T03:01:42.792Z,0
2016-11-30T03:02:15.118Z,0
2016-11-30T03:02:47.446Z,0
2016-11-30T03:03:19.770Z,0
2016-11-30T03:03:52.070Z,0
2016-11-30T03:04:24.375Z,0
2016-11-30T03:04:56.695Z,0
2016-11-30T03:05:29.013Z,0
2016-11-30T03:06:01.382Z,0
2016-11-30T03:06:33.699Z,0
2016-11-30T03:07:06.017Z,0
2016-11-30T03:07:38.354Z,0
2016-11-30T03:08:10.681Z,0
2016-11-30T03:08:42.994Z,0
2016-11-30T03:09:15.320Z,0
2016-11-30T03:09:47.650Z,0
2016-11-30T03:10:19.966Z,0
2016-11-30T03:10:52.282Z,0
2016-11-30T03:11:24.607Z,0
2016-11-30T03:11:56.936Z,0
2016-11-30T03:12:29.242Z,0
2016-11-30T03:13:01.561Z,0
2016-11-30T03:13:33.868Z,0
2016-11-30T03:14:06.184Z,0
2016-11-30T03:14:38.501Z,0
2016-11-30T03:15:10.795Z,0
2016-11-30T03:15:43.121Z,0
2016-11-30T03:16:15.439Z,0
2016-11-30T03:16:47.748Z,0
2016-11-30T03:17:20.062Z,0
2016-11-30T03:17:52.385Z,0
2016-11-30T03:18:24.717Z,0
2016-11-30T03:18:57.045Z,0
2016-11-30T03:19:29.353Z,0
2016-11-30T03:20:01.672Z,0
2016-11-30T03:20:33.995Z,0
2016-11-30T03:21:06.323Z,0
2016-11-30T03:21:38.632Z,0
2016-11-30T03:22:10.946Z,0
2016-11-30T03:22:43.259Z,0
2016-11-30T03:23:15.567Z,0
2016-11-30T03:23:47.878Z,0
2016-11-30T03:24:20.187Z,0
2016-11-30T03:24:52.509Z,0
2016-11-30T03:25:24.831Z,0
2016-11-30T03:25:57.153Z,0
2016-11-30T03:26:29.461Z,0
2016-11-30T03:27:01.786Z,0
2016-11-30T03:27:34.112Z,0
2016-11-30T03:28:06.435Z,0
2016-11-30T03:28:38.749Z,0
2016-11-30T03:29:11.072Z,0
2016-11-30T03:29:43.396Z,0
2016-11-30T03:30:15.722Z,0
2016-11-30T03:30:48.053Z,0
2016-11-30T03:31:20.385Z,0
2016-11-30T03:31:52.707Z,0
2016-11-30T03:32:25.019Z,0
2016-11-30T03:32:57.339Z,0
2016-11-30T03:33:29.669Z,0
2016-11-30T03:34:01.993Z,0
2016-11-30T03:34:34.323Z,0
2016-11-30T03:35:06.643Z,0
2016-11-30T03:35:38.958Z,0
2016-11-30T03:36:11.263Z,0
2016-11-30T03:36:43.584Z,0
2016-11-30T03:37:15.910Z,0
2016-11-30T03:37:48.226Z,0
2016-11-30T03:38:20.541Z,0
2016-11-30T03:38:52.863Z,0
2016-11-30T03:39:25.187Z,0
2016-11-30T03:39:57.537Z,0
2016-11-30T03:40:29.851Z,0
2016-11-30T03:41:02.166Z,0
2016-11-30T03:43:29.871Z,0
2016-11-30T03:44:02.178Z,0
2016-11-30T03:44:34.491Z,0
2016-11-30T03:45:06.807Z,0
2016-11-30T03:45:39.101Z,0
2016-11-30T03:46:11.417Z,0
2016-11-30T03:46:43.723Z,0
2016-11-30T03:47:16.024Z,0
2016-11-30T03:47:48.335Z,0
2016-11-30T03:48:20.684Z,0
2016-11-30T03:48:52.999Z,0
2016-11-30T03:49:25.298Z,0
2016-11-30T03:49:57.609Z,0
2016-11-30T03:50:29.933Z,0
2016-11-30T03:51:02.262Z,0
2016-11-30T03:51:34.569Z,0
2016-11-30T03:52:06.885Z,0
2016-11-30T03:52:39.178Z,0
2016-11-30T03:53:11.501Z,0
2016-11-30T03:53:43.798Z,0
2016-11-30T03:54:16.117Z,0
2016-11-30T03:54:48.424Z,0
2016-11-30T03:55:20.736Z,0
2016-11-30T03:55:53.055Z,0
2016-11-30T03:56:25.369Z,0
2016-11-30T03:56:57.681Z,0
2016-11-30T03:57:30.045Z,0
2016-11-30T03:58:02.368Z,0
2016-11-30T03:58:34.707Z,0
2016-11-30T03:59:07.023Z,0
2016-11-30T03:59:39.338Z,0
2016-11-30T04:00:11.647Z,0
2016-11-30T04:00:43.961Z,0
2016-11-30T04:01:16.286Z,0
2016-11-30T04:01:49.324Z,0
2016-11-30T04:02:21.650Z,0
2016-11-30T04:02:53.955Z,0
2016-11-30T04:03:26.264Z,0
2016-11-30T04:03:58.571Z,0
2016-11-30T04:04:30.890Z,0
2016-11-30T04:05:03.227Z,0
2016-11-30T04:05:35.547Z,0
2016-11-30T04:06:07.878Z,0
2016-11-30T04:06:40.201Z,0
2016-11-30T04:07:12.531Z,0
2016-11-30T04:07:44.851Z,0
2016-11-30T04:08:17.168Z,0
2016-11-30T04:08:49.490Z,0
2016-11-30T04:09:21.814Z,0
2016-11-30T04:09:54.149Z,0
2016-11-30T04:10:26.468Z,0
2016-11-30T04:10:58.820Z,0
2016-11-30T04:11:31.138Z,0
2016-11-30T04:12:03.465Z,0
2016-11-30T04:12:35.793Z,0
2016-11-30T04:13:08.114Z,0
2016-11-30T04:13:40.444Z,0
2016-11-30T04:14:12.762Z,0
2016-11-30T04:14:45.071Z,0
2016-11-30T04:15:17.390Z,0
2016-11-30T04:15:49.692Z,0
2016-11-30T04:16:22.014Z,0
2016-11-30T04:16:54.335Z,0
2016-11-30T04:17:26.646Z,0
2016-11-30T04:17:58.964Z,0
2016-11-30T04:18:31.294Z,0
2016-11-30T04:19:03.623Z,0
2016-11-30T04:19:35.937Z,0
2016-11-30T04:20:08.253Z,0
2016-11-30T04:20:40.563Z,0
2016-11-30T04:21:12.876Z,0
2016-11-30T04:21:45.193Z,0
2016-11-30T04:22:17.516Z,0
2016-11-30T04:22:49.879Z,0
2016-11-30T04:23:22.179Z,0
2016-11-30T04:23:54.498Z,0
2016-11-30T04:24:26.812Z,0
2016-11-30T04:24:59.126Z,0
2016-11-30T04:25:31.438Z,0
2016-11-30T04:26:03.798Z,0
2016-11-30T04:26:36.118Z,0
2016-11-30T04:27:08.451Z,0
2016-11-30T04:27:40.780Z,0
2016-11-30T04:28:13.086Z,0
2016-11-30T04:28:45.415Z,0
2016-11-30T04:29:17.736Z,0
2016-11-30T04:29:50.062Z,0
2016-11-30T04:30:22.412Z,0
2016-11-30T04:30:54.731Z,0
2016-11-30T04:31:27.060Z,0
2016-11-30T04:31:59.394Z,0
2016-11-30T04:32:31.706Z,0
2016-11-30T04:33:04.024Z,0
2016-11-30T04:33:36.344Z,0
2016-11-30T04:34:08.664Z,0
2016-11-30T04:34:40.992Z,0
2016-11-30T04:35:13.313Z,0
2016-11-30T04:35:45.637Z,0
2016-11-30T04:36:17.955Z,0
2016-11-30T04:36:50.259Z,0
2016-11-30T04:37:22.583Z,0
2016-11-30T04:37:54.888Z,0
2016-11-30T04:38:27.191Z,0
2016-11-30T04:38:59.502Z,0
2016-11-30T04:39:31.819Z,0
2016-11-30T04:40:04.129Z,0
2016-11-30T04:40:36.462Z,0
2016-11-30T04:41:08.785Z,0
2016-11-30T04:41:41.107Z,0
2016-11-30T04:42:13.421Z,0
2016-11-30T04:42:45.739Z,0
2016-11-30T04:43:18.056Z,0
2016-11-30T04:43:50.404Z,0
2016-11-30T04:44:22.725Z,0
2016-11-30T04:44:55.051Z,0
2016-11-30T04:45:27.360Z,0
2016-11-30T04:45:59.690Z,0
2016-11-30T04:46:32.014Z,0
2016-11-30T04:47:04.321Z,0
2016-11-30T04:47:36.682Z,0
2016-11-30T04:48:09.009Z,0
2016-11-30T04:48:41.332Z,0
2016-11-30T04:49:13.649Z,0
2016-11-30T04:49:45.950Z,0
2016-11-30T04:50:18.269Z,0
2016-11-30T04:50:50.636Z,0
2016-11-30T04:51:22.955Z,0
2016-11-30T04:51:55.264Z,0
2016-11-30T04:52:27.585Z,0
2016-11-30T04:52:59.909Z,0
2016-11-30T04:53:32.239Z,0
2016-11-30T04:54:04.555Z,0
2016-11-30T04:54:36.867Z,0
2016-11-30T04:55:09.183Z,0
2016-11-30T04:55:41.563Z,0
2016-11-30T04:56:13.875Z,0
2016-11-30T04:56:46.173Z,0
2016-11-30T04:57:18.501Z,0
2016-11-30T04:57:50.818Z,0
2016-11-30T04:58:23.141Z,0
2016-11-30T04:58:55.479Z,0
2016-11-30T04:59:27.798Z,0
2016-11-30T05:00:00.123Z,0
2016-11-30T05:00:32.446Z,0
2016-11-30T05:01:04.774Z,0
2016-11-30T05:01:37.109Z,0
2016-11-30T05:02:09.469Z,0
2016-11-30T05:02:41.773Z,0
2016-11-30T05:03:14.116Z,0
2016-11-30T05:03:46.444Z,0
2016-11-30T05:04:18.773Z,0
2016-11-30T05:04:51.097Z,0
2016-11-30T05:05:23.403Z,0
2016-11-30T05:05:55.755Z,0
2016-11-30T05:06:28.084Z,0
2016-11-30T05:07:00.405Z,0
2016-11-30T05:07:32.732Z,0
2016-11-30T05:08:05.066Z,0
2016-11-30T05:08:37.388Z,0
2016-11-30T05:09:09.706Z,0
2016-11-30T05:09:42.011Z,0
2016-11-30T05:10:14.329Z,0
2016-11-30T05:10:47.299Z,0
2016-11-30T05:11:19.617Z,0
2016-11-30T05:11:51.938Z,0
2016-11-30T05:12:24.263Z,0
2016-11-30T05:12:56.587Z,0
2016-11-30T05:13:28.910Z,0
2016-11-30T05:14:01.227Z,0
2016-11-30T05:14:33.555Z,0
2016-11-30T05:15:05.917Z,0
2016-11-30T05:15:38.226Z,0
2016-11-30T05:16:10.545Z,0
2016-11-30T05:16:42.855Z,0
2016-11-30T05:17:15.179Z,0
2016-11-30T05:17:47.498Z,0
2016-11-30T05:18:19.815Z,0
2016-11-30T05:18:52.132Z,0
2016-11-30T05:19:24.497Z,0
2016-11-30T05:19:56.812Z,0
2016-11-30T05:20:29.135Z,0
2016-11-30T05:21:01.486Z,0
2016-11-30T05:21:33.849Z,0
2016-11-30T05:22:06.197Z,0
2016-11-30T05:22:38.520Z,0
2016-11-30T05:23:10.846Z,0
2016-11-30T05:23:43.153Z,0
2016-11-30T05:24:15.454Z,0
2016-11-30T05:24:47.750Z,0
2016-11-30T05:25:20.076Z,0
2016-11-30T05:25:52.397Z,0
2016-11-30T05:26:24.712Z,0
2016-11-30T05:26:57.028Z,0
2016-11-30T05:27:29.346Z,0
2016-11-30T05:28:01.682Z,0
2016-11-30T05:28:34.011Z,0
2016-11-30T05:29:06.336Z,0
2016-11-30T05:29:38.665Z,0
2016-11-30T05:30:10.987Z,0
2016-11-30T05:30:43.304Z,0
2016-11-30T05:31:15.631Z,0
2016-11-30T05:31:47.971Z,0
2016-11-30T05:32:20.292Z,0
2016-11-30T05:32:52.608Z,0
2016-11-30T05:33:24.922Z,0
2016-11-30T05:33:57.238Z,0
2016-11-30T05:34:29.560Z,0
2016-11-30T05:35:01.880Z,0
2016-11-30T05:35:34.212Z,0
2016-11-30T05:36:06.527Z,0
2016-11-30T05:36:38.876Z,0
2016-11-30T05:37:11.204Z,0
2016-11-30T05:37:43.526Z,0
2016-11-30T05:38:15.849Z,0
2016-11-30T05:38:48.171Z,0
2016-11-30T05:39:20.482Z,0
2016-11-30T05:39:52.807Z,0
2016-11-30T05:40:25.125Z,0
2016-11-30T05:40:57.456Z,0
2016-11-30T05:41:29.800Z,0
2016-11-30T05:42:02.123Z,0
2016-11-30T05:42:34.433Z,0
2016-11-30T05:43:06.744Z,0
2016-11-30T05:43:39.048Z,0
2016-11-30T05:44:11.358Z,0
2016-11-30T05:44:43.670Z,0
2016-11-30T05:45:15.989Z,0
2016-11-30T05:45:48.301Z,0
2016-11-30T05:46:20.619Z,0
2016-11-30T05:46:52.941Z,0
2016-11-30T05:47:25.254Z,0
2016-11-30T05:47:57.580Z,0
2016-11-30T05:48:29.893Z,0
2016-11-30T05:49:02.211Z,0
2016-11-30T05:49:34.527Z,0
2016-11-30T05:50:06.855Z,0
2016-11-30T05:50:39.181Z,0
2016-11-30T05:51:11.508Z,0
2016-11-30T05:51:43.821Z,0
2016-11-30T05:52:16.146Z,0
2016-11-30T05:52:48.470Z,0
2016-11-30T05:53:20.788Z,0
2016-11-30T05:53:53.106Z,0
2016-11-30T05:54:25.421Z,0
2016-11-30T05:54:57.755Z,0
2016-11-30T05:55:30.078Z,0
2016-11-30T05:56:02.388Z,0
2016-11-30T05:56:34.737Z,0
2016-11-30T05:57:07.077Z,0
2016-11-30T05:57:39.412Z,0
2016-11-30T05:58:11.734Z,0
2016-11-30T05:58:44.061Z,0
2016-11-30T05:59:16.381Z,0
2016-11-30T05:59:48.710Z,0
2016-11-30T06:00:21.050Z,0
2016-11-30T06:00:53.371Z,0
2016-11-30T06:01:25.684Z,0
2016-11-30T06:01:58.037Z,0
2016-11-30T06:02:30.359Z,0
2016-11-30T06:03:02.666Z,0
2016-11-30T06:03:34.973Z,0
2016-11-30T06:04:07.292Z,0
2016-11-30T06:04:39.592Z,0
2016-11-30T06:05:11.914Z,0
2016-11-30T06:05:44.228Z,0
2016-11-30T06:06:16.541Z,0
2016-11-30T06:06:48.844Z,0
2016-11-30T06:07:21.158Z,0
2016-11-30T06:07:53.470Z,0
2016-11-30T06:08:25.773Z,0
2016-11-30T06:08:58.095Z,0
2016-11-30T06:09:30.423Z,0
2016-11-30T06:10:02.747Z,0
2016-11-30T06:10:35.071Z,0
2016-11-30T06:11:07.406Z,0
2016-11-30T06:11:39.746Z,0
2016-11-30T06:12:12.059Z,0
2016-11-30T06:12:44.402Z,0
2016-11-30T06:13:16.697Z,0
2016-11-30T06:13:49.023Z,0
2016-11-30T06:14:21.331Z,0
2016-11-30T06:14:53.670Z,0
2016-11-30T06:15:25.984Z,0
2016-11-30T06:15:58.312Z,0
2016-11-30T06:16:30.629Z,0
2016-11-30T06:17:02.954Z,0
2016-11-30T06:17:35.457Z,0
2016-11-30T06:18:07.840Z,0
2016-11-30T06:18:40.163Z,0
2016-11-30T06:19:12.486Z,0
2016-11-30T06:19:46.992Z,0
2016-11-30T06:20:19.292Z,0
2016-11-30T06:20:52.380Z,0
2016-11-30T06:21:24.829Z,0
2016-11-30T06:21:57.151Z,0
2016-11-30T06:22:29.459Z,0
2016-11-30T06:23:01.790Z,0
2016-11-30T06:23:34.098Z,0
2016-11-30T06:24:06.416Z,0
2016-11-30T06:24:38.749Z,0
2016-11-30T06:25:11.054Z,0
2016-11-30T06:25:43.360Z,0
2016-11-30T06:26:15.706Z,0
2016-11-30T06:26:49.003Z,0
2016-11-30T06:27:21.551Z,0
2016-11-30T06:27:53.860Z,0
2016-11-30T06:28:26.183Z,0
2016-11-30T06:28:58.502Z,0
2016-11-30T06:29:30.827Z,0
2016-11-30T06:30:03.144Z,0
2016-11-30T06:30:35.462Z,0
2016-11-30T06:31:12.589Z,0
2016-11-30T06:31:48.689Z,0
2016-11-30T06:32:23.547Z,0
2016-11-30T06:32:55.848Z,0
2016-11-30T06:33:28.197Z,0
2016-11-30T06:34:05.002Z,0
2016-11-30T06:34:43.058Z,0
2016-11-30T06:35:22.026Z,0
2016-11-30T06:36:00.502Z,0
2016-11-30T06:36:39.692Z,0
2016-11-30T06:37:16.183Z,0
2016-11-30T06:37:51.614Z,0
2016-11-30T06:38:26.207Z,0
2016-11-30T06:39:04.523Z,0
2016-11-30T06:39:41.827Z,0
2016-11-30T06:40:18.003Z,0
2016-11-30T06:40:54.520Z,0
2016-11-30T06:41:32.560Z,0
2016-11-30T06:42:09.516Z,0
2016-11-30T06:42:47.540Z,0
2016-11-30T06:43:21.067Z,0
2016-11-30T06:43:53.686Z,0
2016-11-30T06:44:27.497Z,0
2016-11-30T06:45:01.030Z,0
2016-11-30T06:45:34.540Z,0
2016-11-30T06:46:07.076Z,4
2016-11-30T06:46:39.650Z,4
2016-11-30T06:47:12.553Z,4
2016-11-30T06:47:45.114Z,4
2016-11-30T06:48:17.422Z,4
2016-11-30T06:48:49.917Z,0
2016-11-30T06:49:23.571Z,4
2016-11-30T06:49:55.914Z,4
2016-11-30T06:50:28.271Z,4
2016-11-30T06:51:00.583Z,4
2016-11-30T06:51:32.888Z,4
2016-11-30T06:52:05.216Z,8
2016-11-30T06:52:37.724Z,4
2016-11-30T06:53:10.122Z,4
2016-11-30T06:53:43.420Z,8
2016-11-30T06:54:19.502Z,8
2016-11-30T06:54:53.024Z,8
2016-11-30T06:55:25.336Z,8
2016-11-30T06:56:00.513Z,8
2016-11-30T06:56:33.353Z,12
2016-11-30T06:57:05.650Z,12
2016-11-30T06:57:37.991Z,12
2016-11-30T06:58:10.962Z,12
2016-11-30T06:58:43.271Z,16
2016-11-30T06:59:15.567Z,16
2016-11-30T06:59:47.931Z,16
2016-11-30T07:00:20.265Z,16
2016-11-30T07:00:52.625Z,20
2016-11-30T07:01:24.935Z,16
2016-11-30T07:01:57.242Z,20
2016-11-30T07:02:29.536Z,20
2016-11-30T07:03:01.859Z,20
2016-11-30T07:03:34.177Z,24
2016-11-30T07:04:06.470Z,24
2016-11-30T07:04:38.778Z,24
2016-11-30T07:05:11.120Z,28
2016-11-30T07:05:44.972Z,28
2016-11-30T07:06:18.981Z,28
2016-11-30T07:06:51.570Z,32
2016-11-30T07:07:26.193Z,32
2016-11-30T07:07:58.678Z,36
2016-11-30T07:08:30.971Z,32
2016-11-30T07:09:03.433Z,36
2016-11-30T07:09:36.455Z,36
2016-11-30T07:10:09.450Z,40
2016-11-30T07:10:42.395Z,44
2016-11-30T07:11:15.502Z,40
2016-11-30T07:11:48.137Z,40
2016-11-30T07:12:20.465Z,44
2016-11-30T07:12:52.771Z,44
2016-11-30T07:13:28.501Z,44
2016-11-30T07:14:00.821Z,48
2016-11-30T07:14:33.145Z,52
2016-11-30T07:15:05.476Z,52
2016-11-30T07:15:37.814Z,52
2016-11-30T07:16:10.133Z,56
2016-11-30T07:16:42.448Z,56
2016-11-30T07:17:14.769Z,60
2016-11-30T07:17:48.048Z,64
2016-11-30T07:18:20.433Z,64
2016-11-30T07:18:57.681Z,68
2016-11-30T07:19:30.876Z,72
2016-11-30T07:20:03.214Z,72
2016-11-30T07:20:35.524Z,72
2016-11-30T07:21:07.823Z,76
2016-11-30T07:21:40.138Z,80
2016-11-30T07:22:12.439Z,80
2016-11-30T07:22:44.749Z,84
2016-11-30T07:23:17.053Z,84
2016-11-30T07:23:49.411Z,84
2016-11-30T07:24:21.721Z,84
2016-11-30T07:24:54.888Z,80
2016-11-30T07:25:27.183Z,76
2016-11-30T07:25:59.494Z,76
2016-11-30T07:26:31.820Z,76
2016-11-30T07:27:04.134Z,72
2016-11-30T07:27:36.493Z,68
2016-11-30T07:28:08.794Z,68
2016-11-30T07:28:41.113Z,60
2016-11-30T07:29:14.416Z,60
2016-11-30T07:29:46.737Z,60
2016-11-30T07:30:19.640Z,60
2016-11-30T07:30:57.543Z,60
2016-11-30T07:31:29.989Z,56
2016-11-30T07:32:02.296Z,56
2016-11-30T07:32:34.609Z,60
2016-11-30T07:33:06.941Z,60
2016-11-30T07:33:39.269Z,56
2016-11-30T07:34:12.416Z,56
2016-11-30T07:34:48.132Z,60
2016-11-30T07:35:23.723Z,60
2016-11-30T07:35:56.155Z,56
2016-11-30T07:36:28.467Z,56
2016-11-30T07:37:00.786Z,60
2016-11-30T07:37:33.068Z,60
2016-11-30T07:38:05.363Z,60
2016-11-30T07:38:37.907Z,60
2016-11-30T07:39:10.980Z,68
2016-11-30T07:39:43.381Z,64
2016-11-30T07:40:16.898Z,64
2016-11-30T07:40:49.997Z,64
2016-11-30T07:41:25.242Z,64
2016-11-30T07:41:59.064Z,68
2016-11-30T07:42:32.465Z,64
2016-11-30T07:43:06.031Z,64
2016-11-30T07:43:39.303Z,68
2016-11-30T07:44:13.084Z,68
2016-11-30T07:44:46.519Z,72
2016-11-30T07:45:18.858Z,72
2016-11-30T07:45:51.152Z,76
2016-11-30T07:46:23.484Z,76
2016-11-30T07:46:59.032Z,76
2016-11-30T07:47:33.512Z,72
2016-11-30T07:48:07.031Z,72
2016-11-30T07:48:40.431Z,76
2016-11-30T07:49:14.666Z,76
2016-11-30T07:49:48.408Z,80
2016-11-30T07:50:21.473Z,80
2016-11-30T07:50:55.018Z,80
2016-11-30T07:51:28.739Z,84
2016-11-30T07:52:06.026Z,80
2016-11-30T07:52:38.586Z,84
2016-11-30T07:53:12.016Z,80
2016-11-30T07:53:45.520Z,84
2016-11-30T07:54:18.168Z,80
2016-11-30T07:54:51.517Z,76
2016-11-30T07:55:24.985Z,80
2016-11-30T07:55:57.375Z,84
2016-11-30T07:56:29.791Z,84
2016-11-30T07:57:03.042Z,84
2016-11-30T07:57:38.520Z,80
2016-11-30T07:58:14.213Z,84
2016-11-30T07:58:51.028Z,84
2016-11-30T07:59:24.441Z,84
2016-11-30T07:59:57.623Z,92
2016-11-30T08:00:30.624Z,96